sensor_id;sensor_type;location;lat;lon;timestamp;temperature;humidity
34558;DHT22;24708;48.888;8.736;2022-08-03T05:36:34;22.40;99.90
34558;DHT22;24708;48.888;8.736;2022-08-03T05:48:58;27.80;91.70
34558;DHT22;24708;48.888;8.736;2022-08-03T05:51:26;27.20;84.50
34558;DHT22;24708;48.888;8.736;2022-08-03T05:53:54;29.90;86.60
34558;DHT22;24708;48.888;8.736;2022-08-03T05:56:23;29.20;78.30
34558;DHT22;24708;48.888;8.736;2022-08-03T06:01:19;31.20;72.00
34558;DHT22;24708;48.888;8.736;2022-08-03T06:03:49;32.00;70.00
34558;DHT22;24708;48.888;8.736;2022-08-03T06:11:14;34.30;64.60
34558;DHT22;24708;48.888;8.736;2022-08-03T06:13:42;34.70;63.10
34558;DHT22;24708;48.888;8.736;2022-08-03T06:16:10;35.00;62.00
34558;DHT22;24708;48.888;8.736;2022-08-03T06:18:38;35.30;60.90
34558;DHT22;24708;48.888;8.736;2022-08-03T06:21:07;36.00;59.70
34558;DHT22;24708;48.888;8.736;2022-08-03T06:23:42;37.00;58.50
34558;DHT22;24708;48.888;8.736;2022-08-03T06:26:20;36.60;58.50
34558;DHT22;24708;48.888;8.736;2022-08-03T06:28:47;36.40;58.50
34558;DHT22;24708;48.888;8.736;2022-08-03T06:31:21;35.60;57.60
34558;DHT22;24708;48.888;8.736;2022-08-03T06:36:38;36.50;57.10
34558;DHT22;24708;48.888;8.736;2022-08-03T06:39:05;37.10;57.40
34558;DHT22;24708;48.888;8.736;2022-08-03T06:41:34;35.60;56.80
34558;DHT22;24708;48.888;8.736;2022-08-03T06:44:04;37.10;56.70
34558;DHT22;24708;48.888;8.736;2022-08-03T06:46:31;37.90;55.40
34558;DHT22;24708;48.888;8.736;2022-08-03T06:48:58;38.00;55.20
34558;DHT22;24708;48.888;8.736;2022-08-03T06:51:26;39.40;56.60
34558;DHT22;24708;48.888;8.736;2022-08-03T06:54:13;38.90;53.60
34558;DHT22;24708;48.888;8.736;2022-08-03T06:56:40;38.00;56.30
34558;DHT22;24708;48.888;8.736;2022-08-03T06:59:07;38.00;53.40
34558;DHT22;24708;48.888;8.736;2022-08-03T07:01:54;38.00;53.80
34558;DHT22;24708;48.888;8.736;2022-08-03T07:06:49;37.30;54.00
34558;DHT22;24708;48.888;8.736;2022-08-03T07:09:16;37.80;53.70
34558;DHT22;24708;48.888;8.736;2022-08-03T07:14:11;38.90;51.50
34558;DHT22;24708;48.888;8.736;2022-08-03T07:16:39;39.10;51.80
34558;DHT22;24708;48.888;8.736;2022-08-03T07:19:06;39.40;51.40
34558;DHT22;24708;48.888;8.736;2022-08-03T07:24:00;38.70;51.40
34558;DHT22;24708;48.888;8.736;2022-08-03T07:26:28;36.00;50.20
34558;DHT22;24708;48.888;8.736;2022-08-03T07:28:55;38.60;51.30
34558;DHT22;24708;48.888;8.736;2022-08-03T07:31:22;38.30;51.60
34558;DHT22;24708;48.888;8.736;2022-08-03T07:33:49;38.20;51.60
34558;DHT22;24708;48.888;8.736;2022-08-03T07:36:16;38.20;51.40
34558;DHT22;24708;48.888;8.736;2022-08-03T07:38:44;37.90;52.00
34558;DHT22;24708;48.888;8.736;2022-08-03T07:41:11;37.40;51.90
34558;DHT22;24708;48.888;8.736;2022-08-03T07:43:38;37.30;52.00
34558;DHT22;24708;48.888;8.736;2022-08-03T07:46:05;36.90;52.50
34558;DHT22;24708;48.888;8.736;2022-08-03T07:48:32;36.20;52.60
34558;DHT22;24708;48.888;8.736;2022-08-03T07:51:02;37.00;52.30
34558;DHT22;24708;48.888;8.736;2022-08-03T07:53:31;37.40;52.50
34558;DHT22;24708;48.888;8.736;2022-08-03T07:56:04;38.40;51.30
34558;DHT22;24708;48.888;8.736;2022-08-03T07:58:37;37.20;51.20
34558;DHT22;24708;48.888;8.736;2022-08-03T08:01:04;37.00;52.20
34558;DHT22;24708;48.888;8.736;2022-08-03T08:03:32;37.40;52.10
34558;DHT22;24708;48.888;8.736;2022-08-03T08:06:19;38.60;51.20
34558;DHT22;24708;48.888;8.736;2022-08-03T08:13:42;36.70;51.30
34558;DHT22;24708;48.888;8.736;2022-08-03T08:18:37;36.90;51.40
34558;DHT22;24708;48.888;8.736;2022-08-03T08:21:04;38.00;50.70
34558;DHT22;24708;48.888;8.736;2022-08-03T08:23:34;37.90;55.60
34558;DHT22;24708;48.888;8.736;2022-08-03T08:26:09;37.90;50.60
34558;DHT22;24708;48.888;8.736;2022-08-03T08:31:04;37.50;50.40
34558;DHT22;24708;48.888;8.736;2022-08-03T08:33:31;37.40;51.00
34558;DHT22;24708;48.888;8.736;2022-08-03T08:36:20;37.70;51.20
34558;DHT22;24708;48.888;8.736;2022-08-03T08:38:47;39.20;54.50
34558;DHT22;24708;48.888;8.736;2022-08-03T08:41:15;38.60;50.10
34558;DHT22;24708;48.888;8.736;2022-08-03T08:43:43;39.80;52.80
34558;DHT22;24708;48.888;8.736;2022-08-03T08:46:11;40.40;49.60
34558;DHT22;24708;48.888;8.736;2022-08-03T08:48:51;41.20;47.70
34558;DHT22;24708;48.888;8.736;2022-08-03T08:51:20;40.80;47.60
34558;DHT22;24708;48.888;8.736;2022-08-03T08:53:52;39.60;48.80
34558;DHT22;24708;48.888;8.736;2022-08-03T08:56:22;40.00;48.80
34558;DHT22;24708;48.888;8.736;2022-08-03T08:58:53;39.40;49.20
34558;DHT22;24708;48.888;8.736;2022-08-03T09:03:50;38.30;49.00
34558;DHT22;24708;48.888;8.736;2022-08-03T09:06:20;38.20;49.70
34558;DHT22;24708;48.888;8.736;2022-08-03T09:08:47;38.50;50.20
34558;DHT22;24708;48.888;8.736;2022-08-03T09:11:15;39.20;50.30
34558;DHT22;24708;48.888;8.736;2022-08-03T09:13:42;39.30;49.60
34558;DHT22;24708;48.888;8.736;2022-08-03T09:16:16;38.50;48.60
34558;DHT22;24708;48.888;8.736;2022-08-03T09:18:48;38.70;48.40
34558;DHT22;24708;48.888;8.736;2022-08-03T09:24:01;38.20;49.40
34558;DHT22;24708;48.888;8.736;2022-08-03T09:26:34;38.20;49.70
34558;DHT22;24708;48.888;8.736;2022-08-03T09:29:07;38.70;53.80
34558;DHT22;24708;48.888;8.736;2022-08-03T09:31:42;38.30;49.30
34558;DHT22;24708;48.888;8.736;2022-08-03T09:34:13;37.80;49.20
34558;DHT22;24708;48.888;8.736;2022-08-03T09:36:47;37.30;50.20
34558;DHT22;24708;48.888;8.736;2022-08-03T09:39:17;36.40;49.50
34558;DHT22;24708;48.888;8.736;2022-08-03T09:41:47;39.10;48.50
34558;DHT22;24708;48.888;8.736;2022-08-03T09:46:53;40.00;51.80
34558;DHT22;24708;48.888;8.736;2022-08-03T09:49:23;40.60;47.00
34558;DHT22;24708;48.888;8.736;2022-08-03T09:51:51;40.20;47.10
34558;DHT22;24708;48.888;8.736;2022-08-03T09:54:39;40.70;46.50
34558;DHT22;24708;48.888;8.736;2022-08-03T09:57:08;39.10;47.00
34558;DHT22;24708;48.888;8.736;2022-08-03T09:59:46;39.10;47.70
34558;DHT22;24708;48.888;8.736;2022-08-03T10:02:24;37.60;53.40
34558;DHT22;24708;48.888;8.736;2022-08-03T10:04:52;37.20;48.50
34558;DHT22;24708;48.888;8.736;2022-08-03T10:07:21;37.10;47.50
34558;DHT22;24708;48.888;8.736;2022-08-03T10:09:55;36.00;47.00
34558;DHT22;24708;48.888;8.736;2022-08-03T10:12:23;37.60;51.50
34558;DHT22;24708;48.888;8.736;2022-08-03T10:17:19;37.90;47.30
34558;DHT22;24708;48.888;8.736;2022-08-03T10:19:47;38.10;47.70
34558;DHT22;24708;48.888;8.736;2022-08-03T10:22:20;38.60;46.80
34558;DHT22;24708;48.888;8.736;2022-08-03T10:24:54;38.60;47.10
34558;DHT22;24708;48.888;8.736;2022-08-03T10:27:23;39.60;46.10
34558;DHT22;24708;48.888;8.736;2022-08-03T10:29:54;39.50;46.40
34558;DHT22;24708;48.888;8.736;2022-08-03T10:32:27;39.50;46.40
34558;DHT22;24708;48.888;8.736;2022-08-03T10:35:06;38.90;47.00
34558;DHT22;24708;48.888;8.736;2022-08-03T10:37:53;38.20;46.90
34558;DHT22;24708;48.888;8.736;2022-08-03T10:40:29;38.80;53.30
34558;DHT22;24708;48.888;8.736;2022-08-03T10:43:27;38.60;46.80
34558;DHT22;24708;48.888;8.736;2022-08-03T10:46:01;39.20;45.40
34558;DHT22;24708;48.888;8.736;2022-08-03T10:48:29;37.90;50.30
34558;DHT22;24708;48.888;8.736;2022-08-03T10:50:57;37.80;46.80
34558;DHT22;24708;48.888;8.736;2022-08-03T10:53:41;36.50;45.30
34558;DHT22;24708;48.888;8.736;2022-08-03T10:56:41;38.20;46.10
34558;DHT22;24708;48.888;8.736;2022-08-03T11:03:00;38.20;45.60
34558;DHT22;24708;48.888;8.736;2022-08-03T11:05:30;38.50;46.00
34558;DHT22;24708;48.888;8.736;2022-08-03T11:08:19;38.20;46.40
34558;DHT22;24708;48.888;8.736;2022-08-03T11:10:47;39.60;45.50
34558;DHT22;24708;48.888;8.736;2022-08-03T11:13:17;38.40;45.00
34558;DHT22;24708;48.888;8.736;2022-08-03T11:15:46;38.30;45.30
34558;DHT22;24708;48.888;8.736;2022-08-03T11:18:14;37.10;45.50
34558;DHT22;24708;48.888;8.736;2022-08-03T11:20:45;38.80;45.30
34558;DHT22;24708;48.888;8.736;2022-08-03T11:23:15;39.20;44.40
34558;DHT22;24708;48.888;8.736;2022-08-03T11:26:10;38.90;44.80
34558;DHT22;24708;48.888;8.736;2022-08-03T11:28:39;39.20;44.80
34558;DHT22;24708;48.888;8.736;2022-08-03T11:34:15;39.10;44.10
34558;DHT22;24708;48.888;8.736;2022-08-03T11:37:33;39.30;44.30
34558;DHT22;24708;48.888;8.736;2022-08-03T11:39:53;37.40;45.30
34558;DHT22;24708;48.888;8.736;2022-08-03T11:44:59;36.60;47.10
34558;DHT22;24708;48.888;8.736;2022-08-03T11:47:28;37.60;45.60
34558;DHT22;24708;48.888;8.736;2022-08-03T11:49:57;37.10;45.70
34558;DHT22;24708;48.888;8.736;2022-08-03T11:52:34;35.70;47.10
34558;DHT22;24708;48.888;8.736;2022-08-03T11:55:08;36.00;46.50
34558;DHT22;24708;48.888;8.736;2022-08-03T11:57:35;36.20;51.40
34558;DHT22;24708;48.888;8.736;2022-08-03T12:00:31;36.20;47.50
34558;DHT22;24708;48.888;8.736;2022-08-03T12:03:04;36.20;47.20
34558;DHT22;24708;48.888;8.736;2022-08-03T12:05:34;36.40;47.00
34558;DHT22;24708;48.888;8.736;2022-08-03T12:10:33;36.40;46.70
34558;DHT22;24708;48.888;8.736;2022-08-03T12:13:02;36.50;46.50
34558;DHT22;24708;48.888;8.736;2022-08-03T12:15:55;36.50;46.80
34558;DHT22;24708;48.888;8.736;2022-08-03T12:18:23;35.70;54.80
34558;DHT22;24708;48.888;8.736;2022-08-03T12:20:51;34.30;55.40
34558;DHT22;24708;48.888;8.736;2022-08-03T12:25:47;34.90;48.20
34558;DHT22;24708;48.888;8.736;2022-08-03T12:28:18;34.70;48.80
34558;DHT22;24708;48.888;8.736;2022-08-03T12:31:05;34.60;49.30
34558;DHT22;24708;48.888;8.736;2022-08-03T12:36:34;35.30;48.60
34558;DHT22;24708;48.888;8.736;2022-08-03T12:39:04;35.30;49.00
34558;DHT22;24708;48.888;8.736;2022-08-03T12:41:35;35.40;48.10
34558;DHT22;24708;48.888;8.736;2022-08-03T12:44:04;34.80;48.20
34558;DHT22;24708;48.888;8.736;2022-08-03T12:46:35;35.10;57.80
34558;DHT22;24708;48.888;8.736;2022-08-03T12:49:09;34.70;48.40
34558;DHT22;24708;48.888;8.736;2022-08-03T12:51:56;35.00;56.30
34558;DHT22;24708;48.888;8.736;2022-08-03T12:54:26;33.90;49.00
34558;DHT22;24708;48.888;8.736;2022-08-03T12:57:04;33.30;57.60
34558;DHT22;24708;48.888;8.736;2022-08-03T12:59:35;34.40;57.50
34558;DHT22;24708;48.888;8.736;2022-08-03T13:02:19;34.00;48.70
34558;DHT22;24708;48.888;8.736;2022-08-03T13:04:51;33.90;49.00
34558;DHT22;24708;48.888;8.736;2022-08-03T13:07:19;33.80;57.20
34558;DHT22;24708;48.888;8.736;2022-08-03T13:09:50;34.20;49.20
34558;DHT22;24708;48.888;8.736;2022-08-03T13:12:21;34.10;49.40
34558;DHT22;24708;48.888;8.736;2022-08-03T13:14:51;34.40;49.00
34558;DHT22;24708;48.888;8.736;2022-08-03T13:19:48;34.80;48.20
34558;DHT22;24708;48.888;8.736;2022-08-03T13:22:20;34.30;56.80
34558;DHT22;24708;48.888;8.736;2022-08-03T13:24:50;34.40;48.90
34558;DHT22;24708;48.888;8.736;2022-08-03T13:30:07;34.30;56.20
34558;DHT22;24708;48.888;8.736;2022-08-03T13:32:35;34.40;49.20
34558;DHT22;24708;48.888;8.736;2022-08-03T13:35:03;34.10;49.40
34558;DHT22;24708;48.888;8.736;2022-08-03T13:39:59;33.70;57.20
34558;DHT22;24708;48.888;8.736;2022-08-03T13:42:31;34.70;57.40
34558;DHT22;24708;48.888;8.736;2022-08-03T13:45:00;34.50;48.90
34558;DHT22;24708;48.888;8.736;2022-08-03T13:47:27;34.00;56.50
34558;DHT22;24708;48.888;8.736;2022-08-03T13:52:30;34.90;56.00
34558;DHT22;24708;48.888;8.736;2022-08-03T14:00:14;34.40;48.60
34558;DHT22;24708;48.888;8.736;2022-08-03T14:05:29;34.70;56.60
34558;DHT22;24708;48.888;8.736;2022-08-03T14:07:59;34.70;48.60
34558;DHT22;24708;48.888;8.736;2022-08-03T14:10:40;34.30;56.50
34558;DHT22;24708;48.888;8.736;2022-08-03T14:13:10;35.10;57.80
34558;DHT22;24708;48.888;8.736;2022-08-03T14:15:37;34.30;57.50
34558;DHT22;24708;48.888;8.736;2022-08-03T14:18:06;33.50;48.40
34558;DHT22;24708;48.888;8.736;2022-08-03T14:20:43;34.40;48.60
34558;DHT22;24708;48.888;8.736;2022-08-03T14:23:16;34.50;48.90
34558;DHT22;24708;48.888;8.736;2022-08-03T14:25:44;34.90;57.50
34558;DHT22;24708;48.888;8.736;2022-08-03T14:28:21;34.60;49.10
34558;DHT22;24708;48.888;8.736;2022-08-03T14:30:50;34.60;56.70
34558;DHT22;24708;48.888;8.736;2022-08-03T14:33:18;34.80;56.90
34558;DHT22;24708;48.888;8.736;2022-08-03T14:35:48;34.10;49.40
34558;DHT22;24708;48.888;8.736;2022-08-03T14:38:16;34.00;49.40
34558;DHT22;24708;48.888;8.736;2022-08-03T14:43:12;34.50;48.70
34558;DHT22;24708;48.888;8.736;2022-08-03T14:45:40;34.50;49.00
34558;DHT22;24708;48.888;8.736;2022-08-03T14:48:07;34.50;48.80
34558;DHT22;24708;48.888;8.736;2022-08-03T14:50:54;32.60;48.10
34558;DHT22;24708;48.888;8.736;2022-08-03T14:53:23;34.30;49.30
34558;DHT22;24708;48.888;8.736;2022-08-03T14:55:50;34.30;49.40
34558;DHT22;24708;48.888;8.736;2022-08-03T14:58:21;34.30;49.20
34558;DHT22;24708;48.888;8.736;2022-08-03T15:00:50;34.20;49.20
34558;DHT22;24708;48.888;8.736;2022-08-03T15:03:19;34.30;48.80
34558;DHT22;24708;48.888;8.736;2022-08-03T15:05:52;34.30;49.20
34558;DHT22;24708;48.888;8.736;2022-08-03T15:10:47;34.40;49.00
34558;DHT22;24708;48.888;8.736;2022-08-03T15:13:16;34.50;49.50
34558;DHT22;24708;48.888;8.736;2022-08-03T15:18:11;34.40;48.80
34558;DHT22;24708;48.888;8.736;2022-08-03T15:23:13;35.00;54.30
34558;DHT22;24708;48.888;8.736;2022-08-03T15:25:40;34.20;49.50
34558;DHT22;24708;48.888;8.736;2022-08-03T15:28:29;34.20;49.70
34558;DHT22;24708;48.888;8.736;2022-08-03T15:30:56;34.20;49.50
34558;DHT22;24708;48.888;8.736;2022-08-03T15:35:51;34.10;49.10
34558;DHT22;24708;48.888;8.736;2022-08-03T15:40:53;33.80;49.30
34558;DHT22;24708;48.888;8.736;2022-08-03T15:43:21;33.60;49.60
34558;DHT22;24708;48.888;8.736;2022-08-03T15:45:49;33.60;50.00
34558;DHT22;24708;48.888;8.736;2022-08-03T15:48:36;33.70;50.00
34558;DHT22;24708;48.888;8.736;2022-08-03T15:53:31;33.60;49.70
34558;DHT22;24708;48.888;8.736;2022-08-03T15:56:00;33.00;55.60
34558;DHT22;24708;48.888;8.736;2022-08-03T15:58:34;32.60;55.60
